createdAt,value
2022-09-07T00:00:02.279Z,95122.41
2022-09-07T00:02:04.198Z,95122.81
2022-09-07T00:04:06.153Z,95127.19
2022-09-07T00:06:10.481Z,95121.66
2022-09-07T00:08:12.743Z,95129.09
2022-09-07T00:10:14.429Z,95131.59
2022-09-07T00:12:16.158Z,95135.75
2022-09-07T00:14:17.832Z,95130.50
2022-09-07T00:16:22.838Z,95128.88
2022-09-07T00:18:25.196Z,95127.47
2022-09-07T00:20:27.051Z,95128.09
2022-09-07T00:22:28.798Z,95134.03
2022-09-07T00:24:31.054Z,95135.50
2022-09-07T00:26:32.746Z,95137.13
2022-09-07T00:28:34.922Z,95130.19
2022-09-07T00:30:41.812Z,95125.88
2022-09-07T00:32:43.534Z,95128.53
2022-09-07T00:34:45.222Z,95126.91
2022-09-07T00:36:47.082Z,95128.72
2022-09-07T00:38:49.236Z,95128.09
2022-09-07T00:40:50.964Z,95135.03
2022-09-07T00:42:52.703Z,95131.72
2022-09-07T00:45:03.207Z,95128.03
2022-09-07T00:47:12.542Z,95127.22
2022-09-07T00:49:18.544Z,95125.03
2022-09-07T00:51:33.770Z,95135.63
2022-09-07T00:53:40.018Z,95126.91
2022-09-07T00:55:43.269Z,95130.56
2022-09-07T00:57:49.266Z,95125.44
2022-09-07T00:59:52.986Z,95121.63
2022-09-07T01:01:54.812Z,95126.91
2022-09-07T01:03:57.877Z,95119.59
2022-09-07T01:06:11.555Z,95123.69
2022-09-07T01:08:13.952Z,95125.25
2022-09-07T01:10:16.018Z,95116.69
2022-09-07T01:12:17.713Z,95114.84
2022-09-07T01:14:22.782Z,95117.72
2022-09-07T01:16:39.562Z,95121.97
2022-09-07T01:18:58.548Z,95116.50
2022-09-07T01:21:09.010Z,95120.34
2022-09-07T01:23:38.308Z,95121.97
2022-09-07T01:26:10.850Z,95115.44
2022-09-07T01:28:23.635Z,95108.69
2022-09-07T01:30:26.006Z,95117.44
2022-09-07T01:32:49.429Z,95118.28
2022-09-07T01:34:53.411Z,95112.16
2022-09-07T01:37:16.542Z,95105.84
2022-09-07T01:39:19.851Z,95105.38
2022-09-07T01:41:33.637Z,95105.31
2022-09-07T01:44:02.803Z,95110.78
2022-09-07T01:46:10.212Z,95113.25
2022-09-07T01:48:15.183Z,95113.25
2022-09-07T01:50:19.233Z,95114.25
2022-09-07T01:52:34.112Z,95115.72
2022-09-07T01:55:01.395Z,95110.59
2022-09-07T01:57:07.786Z,95115.28
2022-09-07T01:59:18.866Z,95115.28
2022-09-07T02:01:22.381Z,95112.16
2022-09-07T02:03:53.783Z,95111.34
2022-09-07T02:06:04.652Z,95107.28
2022-09-07T02:08:23.108Z,95104.00
2022-09-07T02:10:29.145Z,95105.00
2022-09-07T02:13:09.680Z,95106.63
2022-09-07T02:15:15.444Z,95107.22
2022-09-07T02:17:19.841Z,95103.75
2022-09-07T02:19:22.637Z,95107.41
2022-09-07T02:21:28.654Z,95111.06
2022-09-07T02:23:34.187Z,95106.53
2022-09-07T02:25:48.281Z,95100.41
2022-09-07T02:27:50.571Z,95099.97
2022-09-07T02:29:52.576Z,95101.53
2022-09-07T02:31:54.261Z,95105.81
2022-09-07T02:33:56.326Z,95100.72
2022-09-07T02:35:58.558Z,95092.78
2022-09-07T02:38:05.939Z,95098.81
2022-09-07T02:40:08.758Z,95090.25
2022-09-07T02:42:10.521Z,95087.44
2022-09-07T02:44:34.660Z,95087.81
2022-09-07T02:47:15.206Z,95089.56
2022-09-07T02:49:44.743Z,95093.22
2022-09-07T02:52:01.204Z,95091.84
2022-09-07T02:54:22.840Z,95094.75
2022-09-07T02:56:27.479Z,95107.59
2022-09-07T02:59:01.679Z,95102.50
2022-09-07T03:01:15.690Z,95107.06
2022-09-07T03:03:17.251Z,95105.06
2022-09-07T03:05:26.937Z,95101.41
2022-09-07T03:07:44.017Z,95105.88
2022-09-07T03:09:50.219Z,95105.66
2022-09-07T03:11:52.015Z,95102.03
2022-09-07T03:14:00.054Z,95102.66
2022-09-07T03:16:02.062Z,95100.03
2022-09-07T03:18:03.915Z,95106.94
2022-09-07T03:20:05.858Z,95107.72
2022-09-07T03:22:07.619Z,95103.22
2022-09-07T03:24:09.428Z,95091.00
2022-09-07T03:26:23.137Z,95100.59
2022-09-07T03:28:24.921Z,95100.72
2022-09-07T03:30:26.840Z,95100.03
2022-09-07T03:32:33.652Z,95105.22
2022-09-07T03:34:36.342Z,95111.63
2022-09-07T03:36:38.097Z,95114.09
2022-09-07T03:38:39.997Z,95106.78
2022-09-07T03:40:41.660Z,95116.00
2022-09-07T03:42:43.481Z,95117.81
2022-09-07T03:44:45.362Z,95122.22
2022-09-07T03:46:47.079Z,95118.84
2022-09-07T03:48:50.416Z,95117.44
2022-09-07T03:51:06.738Z,95117.09
2022-09-07T03:53:08.433Z,95118.72
2022-09-07T03:55:10.405Z,95121.34
2022-09-07T03:57:12.588Z,95123.56
2022-09-07T03:59:14.314Z,95117.97
2022-09-07T04:01:18.838Z,95116.94
2022-09-07T04:03:20.661Z,95122.44
2022-09-07T04:05:22.511Z,95124.28
2022-09-07T04:07:24.195Z,95136.69
2022-09-07T04:09:25.851Z,95130.13
2022-09-07T04:11:27.533Z,95129.50
2022-09-07T04:13:30.315Z,95128.22
2022-09-07T04:15:32.456Z,95129.63
2022-09-07T04:17:34.093Z,95127.03
2022-09-07T04:19:35.988Z,95133.34
2022-09-07T04:21:37.689Z,95136.50
2022-09-07T04:23:40.597Z,95134.38
2022-09-07T04:25:49.112Z,95138.34
2022-09-07T04:27:50.867Z,95137.72
2022-09-07T04:29:52.550Z,95138.59
2022-09-07T04:31:54.288Z,95125.09
2022-09-07T04:33:56.231Z,95127.31
2022-09-07T04:36:02.406Z,95133.31
2022-09-07T04:38:04.598Z,95132.41
2022-09-07T04:40:06.630Z,95130.66
2022-09-07T04:42:08.292Z,95135.84
2022-09-07T04:44:13.635Z,95135.84
2022-09-07T04:46:24.013Z,95135.50
2022-09-07T04:48:25.765Z,95140.00
2022-09-07T04:50:27.443Z,95145.81
2022-09-07T04:52:29.235Z,95149.72
2022-09-07T04:54:31.104Z,95149.19
2022-09-07T04:56:33.069Z,95151.53
2022-09-07T04:58:36.400Z,95154.31
2022-09-07T05:00:39.316Z,95149.75
2022-09-07T05:02:41.571Z,95144.78
2022-09-07T05:04:43.388Z,95150.81
2022-09-07T05:06:45.101Z,95157.91
2022-09-07T05:08:48.977Z,95160.72
2022-09-07T05:10:51.886Z,95152.63
2022-09-07T05:12:53.606Z,95153.63
2022-09-07T05:14:55.273Z,95154.56
2022-09-07T05:16:57.186Z,95152.19
2022-09-07T05:19:01.387Z,95157.53
2022-09-07T05:21:13.543Z,95158.81
2022-09-07T05:23:15.442Z,95157.66
2022-09-07T05:25:17.135Z,95159.19
2022-09-07T05:27:18.967Z,95160.28
2022-09-07T05:31:43.062Z,95145.97
2022-09-07T05:36:15.221Z,95150.84
2022-09-07T05:38:16.826Z,95152.84
2022-09-07T05:40:18.598Z,95155.44
2022-09-07T05:42:20.244Z,95154.75
2022-09-07T05:46:44.222Z,95146.84
2022-09-07T05:48:46.031Z,95142.28
2022-09-07T05:50:53.729Z,95146.69
2022-09-07T05:52:55.469Z,95145.53
2022-09-07T05:55:13.036Z,95144.34
2022-09-07T05:57:15.147Z,95143.31
2022-09-07T05:59:16.985Z,95140.72
2022-09-07T06:01:18.951Z,95139.09
2022-09-07T06:03:20.844Z,95145.06
2022-09-07T06:05:22.970Z,95141.13
2022-09-07T06:07:24.688Z,95140.47
2022-09-07T06:09:30.360Z,95153.19
2022-09-07T06:11:32.615Z,95151.38
2022-09-07T06:13:34.897Z,95158.16
2022-09-07T06:15:36.655Z,95152.72
2022-09-07T06:17:38.830Z,95152.16
2022-09-07T06:19:40.476Z,95155.66
2022-09-07T06:21:42.192Z,95147.47
2022-09-07T06:23:44.298Z,95144.88
2022-09-07T06:25:49.802Z,95145.72
2022-09-07T06:27:54.061Z,95149.06
2022-09-07T06:29:56.239Z,95152.03
2022-09-07T06:34:19.674Z,95152.50
2022-09-07T06:36:23.282Z,95148.63
2022-09-07T06:38:29.917Z,95147.47
2022-09-07T06:40:34.478Z,95153.81
2022-09-07T06:42:36.182Z,95149.75
2022-09-07T06:44:37.835Z,95151.00
2022-09-07T06:49:01.212Z,95163.94
2022-09-07T06:51:14.426Z,95162.56
2022-09-07T06:55:45.285Z,95166.88
2022-09-07T06:57:46.995Z,95168.53
2022-09-07T06:59:48.672Z,95170.47
2022-09-07T07:01:50.324Z,95169.75
2022-09-07T07:03:53.345Z,95177.97
2022-09-07T07:05:56.248Z,95173.69
2022-09-07T07:07:58.129Z,95176.00
2022-09-07T07:09:59.799Z,95170.66
2022-09-07T07:12:01.493Z,95169.81
2022-09-07T07:14:03.415Z,95172.16
2022-09-07T07:16:13.298Z,95169.66
2022-09-07T07:18:30.902Z,95177.34
2022-09-07T07:20:32.749Z,95171.69
2022-09-07T07:22:49.699Z,95171.06
2022-09-07T07:24:51.471Z,95169.31
2022-09-07T07:26:53.290Z,95171.22
2022-09-07T07:31:06.070Z,95165.22
2022-09-07T07:33:11.070Z,95171.75
2022-09-07T07:35:13.267Z,95174.41
2022-09-07T07:37:16.023Z,95175.00
2022-09-07T07:41:56.454Z,95172.72
2022-09-07T07:44:00.766Z,95174.38
2022-09-07T07:46:05.547Z,95172.94
2022-09-07T07:48:07.903Z,95170.06
2022-09-07T07:53:41.157Z,95165.75
2022-09-07T07:54:58.104Z,95169.19
2022-09-07T07:56:59.754Z,95169.19
2022-09-07T07:59:01.761Z,95171.47
2022-09-07T08:01:12.262Z,95174.34
2022-09-07T08:03:13.984Z,95173.69
2022-09-07T08:05:17.167Z,95167.53
2022-09-07T08:07:19.423Z,95161.78
2022-09-07T08:09:21.101Z,95170.16
2022-09-07T08:11:23.239Z,95171.03
2022-09-07T08:13:26.113Z,95164.69
2022-09-07T08:15:27.744Z,95166.94
2022-09-07T08:17:29.648Z,95169.41
2022-09-07T08:19:31.215Z,95164.59
2022-09-07T08:21:32.828Z,95171.97
2022-09-07T08:23:34.921Z,95172.81
2022-09-07T08:25:36.740Z,95165.41
2022-09-07T08:27:38.302Z,95165.19
2022-09-07T08:29:39.915Z,95162.50
2022-09-07T08:31:41.625Z,95159.78
2022-09-07T08:33:43.424Z,95157.19
2022-09-07T08:36:02.871Z,95155.38
2022-09-07T08:38:04.521Z,95157.28
2022-09-07T08:40:06.610Z,95154.00
2022-09-07T08:42:19.514Z,95143.41
2022-09-07T08:44:27.090Z,95144.75
2022-09-07T08:46:51.942Z,95149.59
2022-09-07T08:48:54.427Z,95144.47
2022-09-07T08:51:05.818Z,95144.75
2022-09-07T08:53:18.401Z,95143.03
2022-09-07T08:55:36.703Z,95138.28
2022-09-07T08:57:42.035Z,95142.31
2022-09-07T08:59:49.328Z,95132.59
2022-09-07T09:04:27.965Z,95130.81
2022-09-07T09:06:58.818Z,95128.81
2022-09-07T09:09:32.295Z,95133.09
2022-09-07T09:11:52.413Z,95134.13
2022-09-07T09:14:10.301Z,95116.75
2022-09-07T09:16:23.907Z,95119.53
2022-09-07T09:18:42.975Z,95108.78
2022-09-07T09:20:49.922Z,95110.50
2022-09-07T09:22:52.669Z,95105.78
2022-09-07T09:25:23.513Z,95111.53
2022-09-07T09:27:25.131Z,95110.25
2022-09-07T09:29:26.749Z,95103.00
2022-09-07T09:31:33.944Z,95110.03
2022-09-07T09:33:35.886Z,95099.59
2022-09-07T09:35:38.550Z,95098.56
2022-09-07T09:37:41.560Z,95096.03
2022-09-07T09:39:44.749Z,95101.50
2022-09-07T09:41:46.498Z,95093.47
2022-09-07T09:43:58.243Z,95096.41
2022-09-07T09:46:15.895Z,95087.75
2022-09-07T09:48:32.860Z,95088.88
2022-09-07T09:53:00.791Z,95083.78
2022-09-07T09:55:30.133Z,95089.59
2022-09-07T10:00:29.217Z,95087.53
2022-09-07T10:04:55.193Z,95070.66
2022-09-07T10:07:00.759Z,95073.19
2022-09-07T10:09:02.568Z,95073.50
2022-09-07T10:11:09.097Z,95073.38
2022-09-07T10:13:21.267Z,95062.66
2022-09-07T10:15:29.976Z,95058.59
2022-09-07T10:17:36.965Z,95060.53
2022-09-07T10:19:41.581Z,95061.28
2022-09-07T10:21:43.737Z,95055.97
2022-09-07T10:23:45.385Z,95058.75
2022-09-07T10:25:47.913Z,95059.88
2022-09-07T10:28:21.184Z,95053.59
2022-09-07T10:30:22.925Z,95048.47
2022-09-07T10:32:52.989Z,95044.50
2022-09-07T10:34:57.585Z,95042.69
2022-09-07T10:37:03.578Z,95040.84
2022-09-07T10:39:11.230Z,95039.78
2022-09-07T10:41:13.480Z,95037.19
2022-09-07T10:43:43.893Z,95038.53
2022-09-07T10:46:07.333Z,95033.88
2022-09-07T10:48:26.067Z,95025.72
2022-09-07T10:50:51.640Z,95027.34
2022-09-07T10:53:40.113Z,95024.63
2022-09-07T10:55:51.088Z,95022.69
2022-09-07T10:58:01.959Z,95020.50
2022-09-07T11:00:10.012Z,95018.81
2022-09-07T11:02:29.374Z,95024.84
2022-09-07T11:04:44.483Z,95020.94
2022-09-07T11:06:53.041Z,95021.28
2022-09-07T11:09:17.325Z,95019.09
2022-09-07T11:14:13.496Z,95018.91
2022-09-07T11:23:53.023Z,95006.34
2022-09-07T11:26:01.778Z,95002.56
2022-09-07T11:28:41.781Z,94990.72
2022-09-07T11:30:49.975Z,95001.78
2022-09-07T11:32:58.117Z,94997.50
2022-09-07T11:35:15.848Z,94998.47
2022-09-07T11:37:46.580Z,94992.47
2022-09-07T11:40:06.403Z,94985.69
2022-09-07T11:44:47.984Z,94988.69
2022-09-07T11:46:55.851Z,94993.91
2022-09-07T11:48:58.091Z,94988.50
2022-09-07T11:51:03.101Z,94985.16
2022-09-07T11:53:15.321Z,94982.75
2022-09-07T11:55:38.610Z,94989.38
2022-09-07T11:58:05.346Z,94985.72
2022-09-07T12:00:28.240Z,94976.84
2022-09-07T12:03:02.732Z,94972.00
2022-09-07T12:05:09.377Z,94964.97
2022-09-07T12:07:32.060Z,94960.03
2022-09-07T12:10:07.616Z,94959.00
2022-09-07T12:12:11.826Z,94964.16
2022-09-07T12:14:31.856Z,94956.38
2022-09-07T12:16:48.317Z,94953.88
2022-09-07T12:18:52.907Z,94955.63
2022-09-07T12:20:54.921Z,94953.84
2022-09-07T12:23:05.499Z,94948.81
2022-09-07T12:25:17.880Z,94951.50
2022-09-07T12:27:22.523Z,94948.28
2022-09-07T12:29:25.972Z,94938.78
2022-09-07T12:31:57.589Z,94943.06
2022-09-07T12:34:33.609Z,94941.69
2022-09-07T12:36:35.140Z,94937.25
2022-09-07T12:39:01.662Z,94934.69
2022-09-07T12:41:24.668Z,94939.91
2022-09-07T12:43:45.024Z,94932.69
2022-09-07T12:45:48.895Z,94930.00
2022-09-07T12:47:59.959Z,94933.75
2022-09-07T12:50:21.244Z,94931.50
2022-09-07T12:52:34.926Z,94927.16
2022-09-07T12:54:45.534Z,94922.88
2022-09-07T12:59:38.460Z,94914.69
2022-09-07T13:02:04.731Z,94910.94
2022-09-07T13:04:15.407Z,94916.38
2022-09-07T13:09:28.775Z,94901.00
2022-09-07T13:11:33.863Z,94901.44
2022-09-07T13:16:06.304Z,94911.34
2022-09-07T13:18:31.566Z,94908.81
2022-09-07T13:20:37.769Z,94910.03
2022-09-07T13:22:41.932Z,94907.13
2022-09-07T13:24:53.404Z,94903.47
2022-09-07T13:27:00.972Z,94903.06
2022-09-07T13:29:03.582Z,94908.09
2022-09-07T13:31:14.670Z,94906.03
2022-09-07T13:33:25.286Z,94900.47
2022-09-07T13:35:27.515Z,94900.59
2022-09-07T13:37:29.844Z,94895.09
2022-09-07T13:39:45.349Z,94895.75
2022-09-07T13:41:56.060Z,94898.53
2022-09-07T13:44:02.190Z,94897.09
2022-09-07T13:46:31.174Z,94899.16
2022-09-07T13:48:39.678Z,94893.06
2022-09-07T13:50:53.242Z,94887.78
2022-09-07T13:53:12.959Z,94894.53
2022-09-07T13:55:45.531Z,94885.44
2022-09-07T13:58:10.229Z,94889.78
2022-09-07T14:00:16.152Z,94887.91
2022-09-07T14:02:28.173Z,94890.59
2022-09-07T14:04:41.453Z,94890.63
2022-09-07T14:06:43.226Z,94882.88
2022-09-07T14:08:51.129Z,94883.47
2022-09-07T14:10:52.766Z,94882.13
2022-09-07T14:13:14.101Z,94884.75
2022-09-07T14:15:31.977Z,94881.47
2022-09-07T14:17:33.878Z,94883.69
2022-09-07T14:19:37.860Z,94879.25
2022-09-07T14:21:40.211Z,94883.34
2022-09-07T14:23:41.885Z,94880.75
2022-09-07T14:28:05.118Z,94878.19
2022-09-07T14:30:28.395Z,94880.16
2022-09-07T14:32:32.086Z,94876.81
2022-09-07T14:34:37.679Z,94882.00
2022-09-07T14:36:45.654Z,94879.66
2022-09-07T14:39:04.428Z,94886.19
2022-09-07T14:41:10.124Z,94879.28
2022-09-07T14:43:30.230Z,94878.25
2022-09-07T14:45:33.697Z,94879.84
2022-09-07T14:47:35.482Z,94873.38
2022-09-07T14:49:37.681Z,94866.41
2022-09-07T14:51:43.536Z,94868.53
2022-09-07T14:53:52.570Z,94872.81
2022-09-07T14:56:02.171Z,94866.94
2022-09-07T14:58:15.853Z,94866.47
2022-09-07T15:00:20.605Z,94869.72
2022-09-07T15:02:32.327Z,94862.19
2022-09-07T15:04:34.358Z,94864.38
2022-09-07T15:09:07.053Z,94868.75
2022-09-07T15:11:37.431Z,94864.75
2022-09-07T15:13:41.741Z,94880.63
2022-09-07T15:15:46.778Z,94873.06
2022-09-07T15:17:48.849Z,94872.03
2022-09-07T15:19:50.973Z,94878.47
2022-09-07T15:21:52.525Z,94872.81
2022-09-07T15:23:57.002Z,94873.09
2022-09-07T15:25:58.639Z,94871.25
2022-09-07T15:28:00.237Z,94871.28
2022-09-07T15:30:01.852Z,94863.78
2022-09-07T15:32:09.266Z,94873.22
2022-09-07T15:34:20.595Z,94882.34
2022-09-07T15:36:22.290Z,94887.97
2022-09-07T15:41:21.759Z,94887.91
2022-09-07T15:43:21.590Z,94884.41
2022-09-07T15:45:24.736Z,94879.56
2022-09-07T15:49:51.331Z,94885.03
2022-09-07T15:52:08.653Z,94880.19
2022-09-07T15:54:13.123Z,94882.63
2022-09-07T15:56:17.241Z,94890.47
2022-09-07T15:58:21.501Z,94886.44
2022-09-07T16:00:23.154Z,94883.19
2022-09-07T16:04:46.732Z,94893.66
2022-09-07T16:06:48.572Z,94888.19
2022-09-07T16:08:51.809Z,94891.91
2022-09-07T16:10:54.289Z,94896.69
2022-09-07T16:13:01.224Z,94899.56
2022-09-07T16:15:05.305Z,94901.28
2022-09-07T16:19:29.497Z,94892.50
2022-09-07T16:21:31.058Z,94885.09
2022-09-07T16:23:32.827Z,94890.13
2022-09-07T16:25:35.233Z,94893.53
2022-09-07T16:27:36.929Z,94888.94
2022-09-07T16:29:38.905Z,94889.88
2022-09-07T16:32:43.933Z,94888.66
2022-09-07T16:34:02.849Z,94883.25
2022-09-07T16:36:16.270Z,94873.88
2022-09-07T16:40:42.953Z,94879.41
2022-09-07T16:42:45.377Z,94883.47
2022-09-07T16:44:47.180Z,94885.97
2022-09-07T16:46:48.767Z,94882.50
2022-09-07T16:48:51.470Z,94884.13
2022-09-07T16:51:01.604Z,94877.47
2022-09-07T16:53:04.516Z,94889.88
2022-09-07T16:55:06.691Z,94880.34
2022-09-07T16:57:08.416Z,94881.53
2022-09-07T16:59:16.071Z,94878.22
2022-09-07T17:01:20.296Z,94883.72
2022-09-07T17:03:21.979Z,94889.66
2022-09-07T17:05:23.817Z,94898.06
2022-09-07T17:07:25.426Z,94898.69
2022-09-07T17:09:28.641Z,94911.63
2022-09-07T17:11:32.840Z,94910.59
2022-09-07T17:13:36.641Z,94916.06
2022-09-07T17:15:38.223Z,94913.97
2022-09-07T17:17:39.859Z,94914.69
2022-09-07T17:19:41.761Z,94915.97
2022-09-07T17:21:43.566Z,94911.44
2022-09-07T17:23:51.956Z,94903.63
2022-09-07T17:26:10.782Z,94902.84
2022-09-07T17:28:12.617Z,94901.22
2022-09-07T17:30:16.871Z,94905.72
2022-09-07T17:32:26.274Z,94907.03
2022-09-07T17:34:29.864Z,94902.47
2022-09-07T17:36:31.662Z,94907.25
2022-09-07T17:40:55.726Z,94917.84
2022-09-07T17:45:19.276Z,94920.06
2022-09-07T17:47:21.358Z,94921.34
2022-09-07T17:49:22.990Z,94927.97
2022-09-07T17:51:26.716Z,94932.16
2022-09-07T17:53:28.326Z,94930.50
2022-09-07T17:55:31.662Z,94934.69
2022-09-07T17:57:34.933Z,94930.63
2022-09-07T18:01:58.438Z,94939.56
2022-09-07T18:04:00.095Z,94947.00
2022-09-07T18:06:02.922Z,94941.91
2022-09-07T18:08:04.859Z,94948.50
2022-09-07T18:10:07.033Z,94950.81
2022-09-07T18:12:08.718Z,94944.06
2022-09-07T18:14:10.332Z,94953.09
2022-09-07T18:16:24.287Z,94960.31
2022-09-07T18:18:26.580Z,94954.38
2022-09-07T18:20:32.558Z,94955.06
2022-09-07T18:22:34.581Z,94952.84
2022-09-07T18:24:36.996Z,94966.47
2022-09-07T18:26:39.196Z,94961.56
2022-09-07T18:31:11.177Z,94972.81
2022-09-07T18:33:12.927Z,94971.63
2022-09-07T18:35:15.006Z,94971.25
2022-09-07T18:37:16.860Z,94969.66
2022-09-07T18:39:18.882Z,94966.97
2022-09-07T18:41:21.190Z,94967.19
2022-09-07T18:43:23.052Z,94966.81
2022-09-07T18:45:28.120Z,94966.25
2022-09-07T18:47:31.463Z,94967.03
2022-09-07T18:49:33.207Z,94965.66
2022-09-07T18:52:51.767Z,94970.19
2022-09-07T18:53:56.456Z,94967.81
2022-09-07T18:56:05.106Z,94955.72
2022-09-07T18:58:06.678Z,94961.09
2022-09-07T19:00:10.029Z,94958.06
2022-09-07T19:02:12.194Z,94958.28
2022-09-07T19:04:14.022Z,94958.50
2022-09-07T19:06:16.068Z,94965.69
2022-09-07T19:08:17.830Z,94960.22
2022-09-07T19:10:19.588Z,94962.06
2022-09-07T19:12:21.624Z,94962.06
2022-09-07T19:14:23.260Z,94961.13
2022-09-07T19:16:25.878Z,94962.25
2022-09-07T19:18:27.681Z,94959.72
2022-09-07T19:20:29.422Z,94963.94
2022-09-07T19:22:30.997Z,94964.25
2022-09-07T19:24:33.340Z,94960.09
2022-09-07T19:26:37.179Z,94964.28
2022-09-07T19:28:38.913Z,94967.97
2022-09-07T19:30:40.553Z,94963.22
2022-09-07T19:32:42.155Z,94962.59
2022-09-07T19:34:45.510Z,94965.34
2022-09-07T19:36:47.186Z,94969.88
2022-09-07T19:38:49.243Z,94966.28
2022-09-07T19:40:58.156Z,94972.50
2022-09-07T19:42:59.954Z,94985.41
2022-09-07T19:45:01.600Z,94981.16
2022-09-07T19:47:03.350Z,94978.06
2022-09-07T19:49:05.718Z,94976.81
2022-09-07T19:51:10.915Z,94980.47
2022-09-07T19:53:14.533Z,94980.25
2022-09-07T19:55:16.294Z,94985.97
2022-09-07T19:57:18.067Z,94986.94
2022-09-07T19:59:20.186Z,94983.19
2022-09-07T20:01:25.065Z,94986.03
2022-09-07T20:03:26.832Z,94977.00
2022-09-07T20:05:31.055Z,94980.47
2022-09-07T20:07:32.643Z,94985.78
2022-09-07T20:09:34.324Z,94978.63
2022-09-07T20:11:36.510Z,94971.88
2022-09-07T20:13:39.011Z,94979.06
2022-09-07T20:15:42.381Z,94970.06
2022-09-07T20:17:44.038Z,94971.88
2022-09-07T20:19:45.616Z,94975.38
2022-09-07T20:21:48.162Z,94981.94
2022-09-07T20:23:50.347Z,94976.84
2022-09-07T20:26:03.414Z,94969.72
2022-09-07T20:28:05.029Z,94977.75
2022-09-07T20:30:07.287Z,94973.06
2022-09-07T20:32:09.077Z,94978.38
2022-09-07T20:34:11.236Z,94974.72
2022-09-07T20:36:15.366Z,94984.09
2022-09-07T20:38:18.293Z,94979.59
2022-09-07T20:40:19.963Z,94978.78
2022-09-07T20:42:21.572Z,94982.53
2022-09-07T20:44:23.569Z,94986.66
2022-09-07T20:46:25.675Z,94984.31
2022-09-07T20:48:27.475Z,94991.22
2022-09-07T20:50:29.083Z,94992.28
2022-09-07T20:52:30.676Z,94991.69
2022-09-07T20:54:37.704Z,94991.06
2022-09-07T20:56:39.677Z,95001.34
2022-09-07T20:58:43.392Z,95003.16
2022-09-07T21:00:51.021Z,95006.41
2022-09-07T21:02:52.939Z,95004.75
2022-09-07T21:04:54.584Z,95005.56
2022-09-07T21:06:56.290Z,95011.94
2022-09-07T21:08:58.258Z,95008.38
2022-09-07T21:11:05.832Z,95017.03
2022-09-07T21:13:07.856Z,95017.84
2022-09-07T21:15:10.082Z,95013.94
2022-09-07T21:17:11.626Z,95015.38
2022-09-07T21:19:13.406Z,95014.56
2022-09-07T21:21:19.814Z,95014.75
2022-09-07T21:23:23.300Z,95012.09
2022-09-07T21:25:24.930Z,95011.06
2022-09-07T21:27:26.529Z,95013.72
2022-09-07T21:29:28.126Z,95013.91
2022-09-07T21:31:31.329Z,95013.66
2022-09-07T21:33:35.362Z,95013.03
2022-09-07T21:35:36.993Z,95008.91
2022-09-07T21:37:38.698Z,95015.69
2022-09-07T21:39:40.463Z,95012.63
2022-09-07T21:41:43.292Z,95021.84
2022-09-07T21:43:45.229Z,95009.34
2022-09-07T21:45:46.892Z,95011.19
2022-09-07T21:47:48.489Z,95011.00
2022-09-07T21:49:50.302Z,95003.03
2022-09-07T21:51:52.023Z,95007.91
2022-09-07T21:53:58.167Z,95016.78
2022-09-07T21:56:02.139Z,95012.91
2022-09-07T21:58:04.092Z,95019.25
2022-09-07T22:00:08.786Z,95010.47
2022-09-07T22:02:11.007Z,95009.03
2022-09-07T22:04:13.577Z,95005.97
2022-09-07T22:06:15.536Z,95008.78
2022-09-07T22:08:17.191Z,95006.34
2022-09-07T22:10:18.909Z,95012.28
2022-09-07T22:12:20.672Z,95004.91
2022-09-07T22:14:22.367Z,95003.28
2022-09-07T22:16:24.293Z,95005.75
2022-09-07T22:18:26.026Z,95006.53
2022-09-07T22:20:27.642Z,95008.19
2022-09-07T22:22:29.387Z,95000.59
2022-09-07T22:24:31.062Z,94997.13
2022-09-07T22:26:37.781Z,94999.78
2022-09-07T22:28:39.778Z,94996.31
2022-09-07T22:30:41.352Z,94993.03
2022-09-07T22:32:50.366Z,94991.41
2022-09-07T22:34:51.966Z,94988.16
2022-09-07T22:36:53.576Z,94991.63
2022-09-07T22:38:57.315Z,94984.44
2022-09-07T22:41:12.357Z,94985.25
2022-09-07T22:43:13.963Z,94991.63
2022-09-07T22:45:15.727Z,94988.78
2022-09-07T22:47:17.335Z,94986.94
2022-09-07T22:49:18.932Z,94986.13
2022-09-07T22:51:20.693Z,94993.88
2022-09-07T22:53:22.765Z,94986.50
2022-09-07T22:55:24.312Z,94988.34
2022-09-07T22:57:25.986Z,94989.16
2022-09-07T22:59:27.643Z,94988.34
2022-09-07T23:01:30.017Z,94996.53
2022-09-07T23:03:33.441Z,94986.34
2022-09-07T23:05:38.350Z,94992.84
2022-09-07T23:07:39.906Z,94991.44
2022-09-07T23:09:41.636Z,94985.31
2022-09-07T23:11:44.347Z,94995.13
2022-09-07T23:13:46.014Z,94985.13
2022-09-07T23:15:47.838Z,94992.47
2022-09-07T23:17:50.800Z,94995.75
2022-09-07T23:19:52.428Z,94994.31
2022-09-07T23:21:54.120Z,94992.47
2022-09-07T23:23:58.209Z,94998.59
2022-09-07T23:26:05.592Z,94993.50
2022-09-07T23:28:09.876Z,94997.81
2022-09-07T23:30:12.269Z,94995.34
2022-09-07T23:32:13.839Z,94996.56
2022-09-07T23:34:15.505Z,94989.44
2022-09-07T23:36:17.990Z,94992.72
2022-09-07T23:38:19.664Z,94986.38
2022-09-07T23:40:21.544Z,94984.94
2022-09-07T23:42:23.187Z,94977.59
2022-09-07T23:44:24.885Z,94980.03
2022-09-07T23:46:26.583Z,94973.53
2022-09-07T23:48:28.488Z,94977.00
2022-09-07T23:50:30.300Z,94976.78
2022-09-07T23:52:31.949Z,94972.06
2022-09-07T23:54:33.596Z,94976.19
2022-09-07T23:56:37.861Z,94978.41
2022-09-07T23:58:39.521Z,94968.84
